Time;durP1;ratioP1;P1;durP2;ratioP2;P2;SDS_P1;SDS_P2;PMS_P1;PMS_P2;Temp;Humidity;BMP_temperature;BMP_pressure;BME280_temperature;BME280_humidity;BME280_pressure;Samples;Min_cycle;Max_cycle;Signal;HPM_P1;HPM_P2
2023/08/20 00:00:49;;;;;;;17.70;10.43;;;;;;;-146.25;100.00;52222.22;2089396;28;20147;-66
2023/08/20 00:01:57;;;;;;;15.68;10.35;;;;;;;-146.25;100.00;52216.13;2087813;28;32077;-67
2023/08/20 00:03:10;;;;;;;16.13;9.32;;;;;;;-146.25;100.00;52240.47;2081262;28;34884;-65
2023/08/20 00:04:12;;;;;;;13.07;9.05;;;;;;;-146.25;100.00;52266.81;2082828;28;20042;-65
2023/08/20 00:05:15;;;;;;;10.88;8.52;;;;;;;-146.25;100.00;52246.53;2089096;28;37927;-65
2023/08/20 00:06:17;;;;;;;17.92;10.18;;;;;;;-146.25;100.00;52242.50;2095507;28;36238;-66
2023/08/20 00:07:22;;;;;;;17.58;11.25;;;;;;;-146.25;100.00;52226.25;2087465;28;32476;-65
2023/08/20 00:08:26;;;;;;;17.63;10.60;;;;;;;-146.25;100.00;52242.50;2087360;28;30009;-66
2023/08/20 00:09:30;;;;;;;13.40;8.90;;;;;;;-146.25;100.00;52242.50;2089228;28;20057;-66
2023/08/20 00:10:32;;;;;;;15.38;10.55;;;;;;;-146.25;100.00;52254.66;2088103;28;35885;-66
2023/08/20 00:11:33;;;;;;;17.45;11.38;;;;;;;-146.25;100.00;52218.16;2088305;28;34394;-66
2023/08/20 00:12:38;;;;;;;16.23;11.18;;;;;;;-146.25;100.00;52226.25;2088789;28;20038;-66
2023/08/20 00:13:40;;;;;;;22.98;13.32;;;;;;;-146.25;100.00;52244.50;2088086;28;38764;-66
2023/08/20 00:15:12;;;;;;;20.50;14.30;;;;;;;-146.25;100.00;52242.50;2087878;28;20053;-66
2023/08/20 00:16:14;;;;;;;21.50;13.68;;;;;;;-146.25;100.00;52236.41;2087563;28;36611;-66
2023/08/20 00:17:16;;;;;;;23.10;13.73;;;;;;;-146.25;100.00;52226.25;2088328;28;35324;-66
2023/08/20 00:18:18;;;;;;;17.75;12.95;;;;;;;-146.25;100.00;52232.34;2087507;28;31953;-66
2023/08/20 00:19:20;;;;;;;14.85;11.10;;;;;;;-146.25;100.00;52256.69;2087459;28;37828;-67
2023/08/20 00:20:22;;;;;;;16.85;10.43;;;;;;;-146.25;100.00;52244.50;2088368;28;34909;-66
2023/08/20 00:21:26;;;;;;;12.52;9.80;;;;;;;-146.25;100.00;52232.34;2088168;28;34293;-66
2023/08/20 00:22:30;;;;;;;17.15;10.38;;;;;;;-146.25;100.00;52266.81;2088121;28;37726;-66
2023/08/20 00:23:32;;;;;;;16.60;10.27;;;;;;;-146.25;100.00;52283.03;2088725;28;34196;-67
2023/08/20 00:24:34;;;;;;;15.77;11.43;;;;;;;-146.25;100.00;52236.41;2086978;28;38506;-65
2023/08/20 00:25:39;;;;;;;20.65;12.75;;;;;;;-146.25;100.00;52272.91;2088207;28;38361;-66
2023/08/20 00:26:41;;;;;;;18.63;12.55;;;;;;;-146.25;100.00;52238.44;2088274;28;31526;-66
2023/08/20 00:27:43;;;;;;;17.95;11.68;;;;;;;-146.25;100.00;52246.53;2088527;28;31495;-66
2023/08/20 00:28:45;;;;;;;22.88;13.35;;;;;;;-146.25;100.00;52246.53;2087419;28;20053;-66
2023/08/20 00:29:49;;;;;;;15.63;11.25;;;;;;;-146.25;100.00;52187.75;2087615;28;33041;-65
2023/08/20 00:30:51;;;;;;;18.20;11.38;;;;;;;-146.25;100.00;52234.38;2088482;28;26513;-66
2023/08/20 00:31:53;;;;;;;21.25;13.93;;;;;;;-146.25;100.00;52262.75;2088478;28;27986;-66
2023/08/20 00:32:55;;;;;;;21.13;12.77;;;;;;;-146.25;100.00;52222.22;2087529;28;38329;-65
2023/08/20 00:33:57;;;;;;;22.00;13.07;;;;;;;-146.25;100.00;52270.88;2088868;28;20745;-66
2023/08/20 00:35:07;;;;;;;16.05;11.52;;;;;;;-146.25;100.00;52234.38;2088371;28;30762;-66
2023/08/20 00:36:10;;;;;;;17.50;12.52;;;;;;;-146.25;100.00;52252.63;2087933;28;20115;-67
2023/08/20 00:37:15;;;;;;;19.90;12.27;;;;;;;-146.25;100.00;52218.16;2087839;28;20922;-66
2023/08/20 00:38:16;;;;;;;19.88;11.10;;;;;;;-146.25;100.00;52246.53;2088229;28;20909;-65
2023/08/20 00:39:18;;;;;;;18.63;11.80;;;;;;;-146.25;100.00;52266.81;2087992;28;25028;-67
2023/08/20 00:40:20;;;;;;;14.65;10.15;;;;;;;-146.25;100.00;52230.31;2087802;28;24652;-66
2023/08/20 00:41:22;;;;;;;19.75;11.93;;;;;;;-146.25;100.00;52252.63;2087597;28;28353;-66
2023/08/20 00:42:28;;;;;;;20.00;12.73;;;;;;;-146.25;100.00;52254.66;2088365;28;26106;-66
2023/08/20 00:43:29;;;;;;;20.98;12.55;;;;;;;-146.25;100.00;52264.78;2088174;28;26928;-66
2023/08/20 00:44:31;;;;;;;18.15;10.55;;;;;;;-146.25;100.00;52224.25;2088343;28;36958;-66
2023/08/20 00:45:34;;;;;;;19.10;12.95;;;;;;;-146.25;100.00;52266.81;2088062;28;30511;-66
2023/08/20 00:46:38;;;;;;;17.92;11.98;;;;;;;-146.25;100.00;52238.44;2087282;28;37724;-66
2023/08/20 00:47:40;;;;;;;18.75;10.75;;;;;;;-146.25;100.00;52266.81;2079735;28;28176;-66
2023/08/20 00:48:42;;;;;;;13.98;9.70;;;;;;;-146.25;100.00;52256.69;2078836;28;31567;-66
2023/08/20 00:49:45;;;;;;;17.13;9.50;;;;;;;-146.25;100.00;52238.44;2079060;28;32799;-66
2023/08/20 00:50:49;;;;;;;17.20;12.10;;;;;;;-146.25;100.00;52246.53;2088472;28;27824;-65
2023/08/20 00:51:53;;;;;;;15.32;10.25;;;;;;;-146.25;100.00;52264.78;2088411;28;20237;-66
2023/08/20 00:52:55;;;;;;;17.27;10.35;;;;;;;-146.25;100.00;52230.31;2088423;28;25789;-66
2023/08/20 00:53:57;;;;;;;18.25;11.38;;;;;;;-146.25;100.00;52264.78;2087840;28;20065;-66
2023/08/20 00:55:10;;;;;;;21.63;12.68;;;;;;;-146.25;100.00;52254.66;2080297;28;20037;-66
2023/08/20 00:56:15;;;;;;;18.30;12.48;;;;;;;-146.25;100.00;52287.09;2088380;28;20029;-66
2023/08/20 00:57:22;;;;;;;18.75;12.55;;;;;;;-146.25;100.00;52256.69;2087768;28;27410;-66
2023/08/20 00:58:24;;;;;;;17.85;11.82;;;;;;;-146.25;100.00;52218.16;2087395;28;34294;-66
2023/08/20 00:59:26;;;;;;;17.75;12.30;;;;;;;-146.25;100.00;52262.75;2087275;28;33821;-66
2023/08/20 01:00:28;;;;;;;20.80;11.82;;;;;;;-146.25;100.00;52260.72;2079389;28;20164;-66
2023/08/20 01:01:30;;;;;;;17.65;11.65;;;;;;;-146.25;100.00;52244.50;2087461;28;33651;-66
2023/08/20 01:02:34;;;;;;;17.23;11.73;;;;;;;-146.25;100.00;52258.72;2087694;28;20050;-66
2023/08/20 01:03:36;;;;;;;15.05;10.25;;;;;;;-146.25;100.00;52250.59;2087941;28;23853;-66
2023/08/20 01:04:40;;;;;;;14.57;10.70;;;;;;;-146.25;100.00;52291.16;2088330;28;28687;-66
2023/08/20 01:06:16;;;;;;;19.67;11.65;;;;;;;-146.25;100.00;52246.53;2088647;28;20873;-66
2023/08/20 01:07:42;;;;;;;15.13;11.30;;;;;;;-146.25;100.00;52244.50;2087636;28;30946;-65
2023/08/20 01:08:50;;;;;;;16.08;10.82;;;;;;;-146.25;100.00;52214.09;2090691;28;25639;-64
2023/08/20 01:10:30;;;;;;;21.13;12.27;;;;;;;-146.25;100.00;52238.44;2087783;28;30190;-65
2023/08/20 01:11:46;;;;;;;20.63;11.93;;;;;;;-146.25;100.00;52238.44;2088494;28;25411;-65
2023/08/20 01:12:51;;;;;;;17.40;10.18;;;;;;;-146.25;100.00;52266.81;2087148;28;31877;-66
2023/08/20 01:13:58;;;;;;;19.52;12.32;;;;;;;-146.25;100.00;52242.50;2081739;28;20104;-65
2023/08/20 01:15:01;;;;;;;17.63;12.30;;;;;;;-146.25;100.00;52260.72;2080199;28;20034;-64
2023/08/20 01:16:03;;;;;;;21.90;12.13;;;;;;;-146.25;100.00;52262.75;2087896;28;20830;-66
2023/08/20 01:17:06;;;;;;;24.45;15.95;;;;;;;-146.25;100.00;52264.78;2096107;28;21016;-65
2023/08/20 01:18:10;;;;;;;23.90;15.02;;;;;;;-146.25;100.00;52270.88;2088510;28;24736;-65
2023/08/20 01:19:19;;;;;;;19.20;11.88;;;;;;;-146.25;100.00;52258.72;2087713;28;20053;-66
2023/08/20 01:20:35;;;;;;;22.38;12.80;;;;;;;-146.25;100.00;52242.50;2087193;28;28708;-67
2023/08/20 01:21:39;;;;;;;20.15;12.57;;;;;;;-146.25;100.00;52238.44;2094216;28;20037;-66
2023/08/20 01:22:44;;;;;;;22.38;13.18;;;;;;;-146.25;100.00;52291.16;2087605;28;26744;-67
2023/08/20 01:23:55;;;;;;;20.35;12.15;;;;;;;-146.25;100.00;52270.88;2088436;28;28750;-67
2023/08/20 01:25:19;;;;;;;;;;;;;;;-146.25;100.00;52260.72;2080020;28;20057;-65
2023/08/20 01:26:31;;;;;;;20.75;12.07;;;;;;;-146.25;100.00;52285.06;2083360;28;36599;-66
2023/08/20 01:27:56;;;;;;;19.02;12.38;;;;;;;-146.25;100.00;52291.16;2087898;28;20037;-64
2023/08/20 01:28:59;;;;;;;22.00;12.85;;;;;;;-146.25;100.00;52270.88;2087954;28;31579;-65
2023/08/20 01:30:03;;;;;;;19.00;12.82;;;;;;;-146.25;100.00;52244.50;2079014;28;27342;-66
2023/08/20 01:31:07;;;;;;;15.98;11.48;;;;;;;-146.25;100.00;52270.88;2080006;28;20082;-65
2023/08/20 01:32:11;;;;;;;23.23;13.13;;;;;;;-146.25;100.00;52270.88;2087332;28;33471;-65
2023/08/20 01:33:14;;;;;;;17.20;12.43;;;;;;;-146.25;100.00;52272.91;2087504;28;26470;-67
2023/08/20 01:34:16;;;;;;;16.40;11.02;;;;;;;-146.25;100.00;52264.78;2087810;28;31147;-65
2023/08/20 01:35:19;;;;;;;17.45;11.13;;;;;;;-146.25;100.00;52246.53;2087537;28;20084;-64
2023/08/20 01:36:21;;;;;;;17.40;11.82;;;;;;;-146.25;100.00;52250.59;2087458;28;29013;-65
2023/08/20 01:37:23;;;;;;;16.20;11.27;;;;;;;-146.25;100.00;52254.66;2079005;28;33073;-66
2023/08/20 01:38:25;;;;;;;21.88;14.15;;;;;;;-146.25;100.00;52291.16;2078897;28;26626;-64
2023/08/20 01:39:27;;;;;;;23.92;13.65;;;;;;;-146.25;100.00;52191.81;2087777;28;20092;-64
2023/08/20 01:40:29;;;;;;;20.38;14.85;;;;;;;-146.25;100.00;52260.72;2095708;28;29672;-67
2023/08/20 01:41:31;;;;;;;22.35;13.25;;;;;;;-146.25;100.00;52274.94;2087610;28;28207;-67
2023/08/20 01:42:34;;;;;;;21.52;14.82;;;;;;;-146.25;100.00;52236.41;2088415;28;20034;-65
2023/08/20 01:43:36;;;;;;;25.13;16.38;;;;;;;-146.25;100.00;52234.38;2088397;28;24587;-65
2023/08/20 01:44:38;;;;;;;20.67;16.02;;;;;;;-146.25;100.00;52246.53;2087329;28;28120;-65
2023/08/20 01:45:39;;;;;;;20.75;15.13;;;;;;;-146.25;100.00;52274.94;2087249;28;21069;-65
2023/08/20 01:46:43;;;;;;;21.67;15.15;;;;;;;-146.25;100.00;52254.66;2087334;28;20092;-65
2023/08/20 01:47:45;;;;;;;20.17;16.02;;;;;;;-146.25;100.00;52285.06;2087418;28;26362;-65
2023/08/20 01:48:50;;;;;;;20.05;14.55;;;;;;;-146.25;100.00;52276.97;2087531;28;20046;-65
2023/08/20 01:49:51;;;;;;;18.02;13.57;;;;;;;-146.25;100.00;52258.72;2079732;28;21948;-65
2023/08/20 01:50:55;;;;;;;17.02;13.23;;;;;;;-146.25;100.00;52250.59;2087312;28;23377;-65
2023/08/20 01:51:57;;;;;;;17.80;13.00;;;;;;;-146.25;100.00;52256.69;2095659;28;20926;-65
2023/08/20 01:52:59;;;;;;;21.65;14.23;;;;;;;-146.25;100.00;52266.81;2088312;28;20168;-65
2023/08/20 01:54:01;;;;;;;20.73;14.88;;;;;;;-146.25;100.00;52274.94;2088099;28;22237;-65
2023/08/20 01:55:07;;;;;;;22.27;15.43;;;;;;;-146.25;100.00;52274.94;2087312;28;33596;-64
2023/08/20 01:56:13;;;;;;;22.95;15.00;;;;;;;-146.25;100.00;52246.53;2088018;28;20197;-65
2023/08/20 01:57:17;;;;;;;17.48;12.80;;;;;;;-146.25;100.00;52260.72;2081054;28;20164;-67
2023/08/20 01:58:19;;;;;;;17.08;12.23;;;;;;;-146.25;100.00;52289.13;2079155;28;20174;-65
2023/08/20 01:59:23;;;;;;;19.75;12.23;;;;;;;-146.25;100.00;52254.66;2087516;28;20906;-65
2023/08/20 02:00:25;;;;;;;14.95;10.88;;;;;;;-146.25;100.00;52276.97;2086374;28;20050;-65
2023/08/20 02:01:27;;;;;;;18.00;11.75;;;;;;;-146.25;100.00;52293.19;2087027;28;40529;-67
2023/08/20 02:02:30;;;;;;;19.27;11.85;;;;;;;-146.25;100.00;52295.19;2095868;28;20980;-66
2023/08/20 02:03:37;;;;;;;14.70;11.27;;;;;;;-146.25;100.00;52283.03;2095567;28;20918;-65
2023/08/20 02:04:44;;;;;;;15.30;11.30;;;;;;;-146.25;100.00;52242.50;2079071;28;20030;-65
2023/08/20 02:05:45;;;;;;;20.25;13.00;;;;;;;-146.25;100.00;52270.88;2080666;28;24250;-64
2023/08/20 02:06:47;;;;;;;18.77;13.90;;;;;;;-146.25;100.00;52262.75;2095396;28;21008;-65
2023/08/20 02:07:49;;;;;;;24.10;14.57;;;;;;;-146.25;100.00;52305.34;2095215;28;30103;-65
2023/08/20 02:08:51;;;;;;;16.52;12.25;;;;;;;-146.25;100.00;52303.31;2078799;28;27234;-65
2023/08/20 02:09:53;;;;;;;16.05;11.82;;;;;;;-146.25;100.00;52246.53;2086593;28;27606;-66
2023/08/20 02:11:02;;;;;;;15.55;12.00;;;;;;;-146.25;100.00;52266.81;2087561;28;32086;-65
2023/08/20 02:12:04;;;;;;;19.35;12.00;;;;;;;-146.25;100.00;52291.16;2087363;28;28533;-65
2023/08/20 02:13:07;;;;;;;18.30;12.48;;;;;;;-146.25;100.00;52260.72;2079470;28;20170;-66
2023/08/20 02:14:08;;;;;;;20.50;13.23;;;;;;;-146.25;100.00;52268.84;2079576;28;20049;-65
2023/08/20 02:15:11;;;;;;;18.33;11.60;;;;;;;-146.25;100.00;52258.72;2078881;28;20104;-65
2023/08/20 02:16:13;;;;;;;16.65;11.20;;;;;;;-146.25;100.00;52268.84;2087396;28;22648;-65
2023/08/20 02:17:15;;;;;;;16.65;12.23;;;;;;;-146.25;100.00;52270.88;2087695;28;25102;-65
2023/08/20 02:18:18;;;;;;;21.45;14.98;;;;;;;-146.25;100.00;52287.09;2088891;28;20104;-65
2023/08/20 02:19:19;;;;;;;21.00;15.13;;;;;;;-146.25;100.00;52295.19;2095250;28;29143;-66
2023/08/20 02:20:21;;;;;;;20.80;15.05;;;;;;;-146.25;100.00;52244.50;2095770;28;20037;-65
2023/08/20 02:21:26;;;;;;;20.52;12.75;;;;;;;-146.25;100.00;52266.81;2078536;28;31810;-65
2023/08/20 02:22:29;;;;;;;18.40;12.80;;;;;;;-146.25;100.00;52254.66;2087634;28;21249;-65
2023/08/20 02:23:31;;;;;;;14.90;10.45;;;;;;;-146.25;100.00;52258.72;2087731;28;26136;-66
2023/08/20 02:24:33;;;;;;;13.60;9.82;;;;;;;-146.25;100.00;52262.75;2087235;28;25644;-64
2023/08/20 02:25:35;;;;;;;21.58;15.07;;;;;;;-146.25;100.00;52248.56;2088470;28;20049;-65
2023/08/20 02:26:39;;;;;;;20.50;15.60;;;;;;;-146.25;100.00;52242.50;2095997;28;27094;-65
2023/08/20 02:27:41;;;;;;;16.85;13.70;;;;;;;-146.25;100.00;52299.25;2087662;28;20049;-65
2023/08/20 02:28:45;;;;;;;17.88;14.02;;;;;;;-146.25;100.00;52252.63;2087532;28;20530;-65
2023/08/20 02:29:49;;;;;;;19.33;13.48;;;;;;;-146.25;100.00;52274.94;2086909;28;30098;-65
2023/08/20 02:30:53;;;;;;;14.73;11.70;;;;;;;-146.25;100.00;52244.50;2086584;28;32039;-66
2023/08/20 02:31:56;;;;;;;19.38;12.60;;;;;;;-146.25;100.00;52297.22;2088516;28;20248;-65
2023/08/20 02:33:00;;;;;;;16.92;12.45;;;;;;;-146.25;100.00;52244.50;2088688;28;28858;-65
2023/08/20 02:34:02;;;;;;;19.42;12.02;;;;;;;-146.25;100.00;52289.13;2088376;28;28711;-65
2023/08/20 02:35:07;;;;;;;18.08;13.13;;;;;;;-146.25;100.00;52226.25;2088505;28;26311;-65
2023/08/20 02:36:09;;;;;;;19.45;12.00;;;;;;;-146.25;100.00;52297.22;2089513;28;20081;-65
2023/08/20 02:37:11;;;;;;;21.30;13.85;;;;;;;-146.25;100.00;52266.81;2088992;28;33801;-66
2023/08/20 02:38:14;;;;;;;19.92;14.10;;;;;;;-146.25;100.00;52272.91;2088870;28;29565;-65
2023/08/20 02:39:16;;;;;;;21.45;14.95;;;;;;;-146.25;100.00;52256.69;2088225;28;20374;-65
2023/08/20 02:40:18;;;;;;;21.13;13.70;;;;;;;-146.25;100.00;52291.16;2088357;28;24323;-66
2023/08/20 02:41:20;;;;;;;20.08;14.25;;;;;;;-146.25;100.00;52285.06;2089353;28;23095;-65
2023/08/20 02:42:22;;;;;;;13.27;10.45;;;;;;;-146.25;100.00;52276.97;2088230;28;24732;-64
2023/08/20 02:43:24;;;;;;;16.13;11.43;;;;;;;-146.25;100.00;52291.16;2079900;28;32540;-64
2023/08/20 02:44:26;;;;;;;16.77;11.45;;;;;;;-146.25;100.00;52307.38;2088470;28;20041;-65
2023/08/20 02:45:31;;;;;;;19.85;12.73;;;;;;;-146.25;100.00;52260.72;2089201;28;20046;-66
2023/08/20 02:46:38;;;;;;;19.08;12.65;;;;;;;-146.25;100.00;52246.53;2089176;28;26289;-65
2023/08/20 02:47:39;;;;;;;17.10;12.82;;;;;;;-146.25;100.00;52248.56;2088430;28;27396;-66
2023/08/20 02:48:41;;;;;;;19.90;13.95;;;;;;;-146.25;100.00;52264.78;2088312;28;29023;-65
2023/08/20 02:49:43;;;;;;;27.58;16.27;;;;;;;-146.25;100.00;52268.84;2089649;28;20853;-66
2023/08/20 02:50:46;;;;;;;27.00;21.13;;;;;;;-146.25;100.00;52272.91;2088552;28;20037;-65
2023/08/20 02:51:48;;;;;;;25.00;18.30;;;;;;;-146.25;100.00;52256.69;2088800;28;26068;-65
2023/08/20 02:52:49;;;;;;;28.92;22.25;;;;;;;-146.25;100.00;52307.38;2088529;28;20159;-65
2023/08/20 02:53:51;;;;;;;26.00;19.60;;;;;;;-146.25;100.00;52242.50;2080547;28;20161;-63
2023/08/20 02:54:53;;;;;;;28.20;19.40;;;;;;;-146.25;100.00;52295.19;2080572;28;20111;-65
2023/08/20 02:55:56;;;;;;;27.45;18.27;;;;;;;-146.25;100.00;52264.78;2087555;28;37006;-65
2023/08/20 02:56:58;;;;;;;19.95;15.88;;;;;;;-146.25;100.00;52252.63;2088365;28;31257;-66
2023/08/20 02:58:02;;;;;;;21.70;16.92;;;;;;;-146.25;100.00;52297.22;2088677;28;20037;-66
2023/08/20 02:59:08;;;;;;;22.00;15.90;;;;;;;-146.25;100.00;52254.66;2096628;28;20079;-65
2023/08/20 03:00:13;;;;;;;18.83;14.25;;;;;;;-146.25;100.00;52327.66;2088384;28;20077;-66
2023/08/20 03:01:26;;;;;;;24.27;15.90;;;;;;;-146.25;100.00;52260.72;2081086;28;20093;-66
2023/08/20 03:02:30;;;;;;;21.88;14.23;;;;;;;-146.25;100.00;52274.94;2074080;28;20045;-65
2023/08/20 03:03:33;;;;;;;18.75;13.30;;;;;;;-146.25;100.00;52321.56;2073625;28;20089;-67
2023/08/20 03:04:35;;;;;;;20.90;14.10;;;;;;;-146.25;100.00;52260.72;2088640;28;20080;-67
2023/08/20 03:05:40;;;;;;;18.67;13.90;;;;;;;-146.25;100.00;52293.19;2088510;28;20902;-67
2023/08/20 03:06:43;;;;;;;16.10;12.32;;;;;;;-146.25;100.00;52246.53;2088158;28;24354;-65
2023/08/20 03:07:45;;;;;;;27.63;15.43;;;;;;;-146.25;100.00;52230.31;2088268;28;26747;-66
2023/08/20 03:08:47;;;;;;;24.65;16.45;;;;;;;-146.25;100.00;52278.97;2088959;28;20194;-67
2023/08/20 03:09:51;;;;;;;17.48;13.40;;;;;;;-146.25;100.00;52303.31;2088123;28;21253;-67
2023/08/20 03:10:53;;;;;;;19.23;12.45;;;;;;;-146.25;100.00;52291.16;2080785;28;20057;-66
2023/08/20 03:11:54;;;;;;;13.82;10.45;;;;;;;-146.25;100.00;52254.66;2088831;28;20046;-67
2023/08/20 03:12:56;;;;;;;17.50;11.30;;;;;;;-146.25;100.00;52291.16;2088294;28;20156;-67
2023/08/20 03:13:58;;;;;;;19.38;13.07;;;;;;;-146.25;100.00;52293.19;2088487;28;25682;-64
2023/08/20 03:15:00;;;;;;;17.30;12.23;;;;;;;-146.25;100.00;52266.81;2088217;28;20034;-64
2023/08/20 03:16:04;;;;;;;19.77;13.00;;;;;;;-146.25;100.00;52256.69;2088110;28;32866;-66
2023/08/20 03:17:06;;;;;;;18.90;13.07;;;;;;;-146.25;100.00;52256.69;2088328;28;20279;-65
2023/08/20 03:18:08;;;;;;;21.63;12.30;;;;;;;-146.25;100.00;52295.19;2088037;28;32720;-65
2023/08/20 03:19:09;;;;;;;16.85;11.27;;;;;;;-146.25;100.00;52276.97;2096972;28;20036;-65
2023/08/20 03:20:11;;;;;;;16.23;10.90;;;;;;;-146.25;100.00;52301.28;2088932;28;25408;-66
2023/08/20 03:21:18;;;;;;;16.65;11.70;;;;;;;-146.25;100.00;52258.72;2089070;28;20037;-66
2023/08/20 03:22:19;;;;;;;21.77;13.38;;;;;;;-146.25;100.00;52244.50;2089152;28;20879;-65
2023/08/20 03:23:22;;;;;;;15.75;10.20;;;;;;;-146.25;100.00;52276.97;2088988;28;20931;-65
2023/08/20 03:24:24;;;;;;;13.50;9.98;;;;;;;-146.25;100.00;52272.91;2088100;28;27599;-65
2023/08/20 03:25:27;;;;;;;17.27;10.98;;;;;;;-146.25;100.00;52297.22;2088456;28;31892;-66
2023/08/20 03:26:29;;;;;;;16.60;10.55;;;;;;;-146.25;100.00;52262.75;2087897;28;37428;-66
2023/08/20 03:27:31;;;;;;;19.60;12.00;;;;;;;-146.25;100.00;52266.81;2080087;28;24946;-66
2023/08/20 03:28:34;;;;;;;18.90;11.82;;;;;;;-146.25;100.00;52305.34;2088391;28;20140;-66
2023/08/20 03:29:39;;;;;;;16.20;11.10;;;;;;;-146.25;100.00;52252.63;2089110;28;20819;-66
2023/08/20 03:30:41;;;;;;;20.40;13.07;;;;;;;-146.25;100.00;52262.75;2087870;28;20087;-66
2023/08/20 03:31:43;;;;;;;17.20;10.73;;;;;;;-146.25;100.00;52295.19;2088266;28;20041;-66
2023/08/20 03:32:44;;;;;;;18.70;12.25;;;;;;;-146.25;100.00;52278.97;2088297;28;20048;-66
2023/08/20 03:33:46;;;;;;;16.83;13.00;;;;;;;-146.25;100.00;52295.19;2079290;28;25942;-66
2023/08/20 03:34:48;;;;;;;34.75;25.23;;;;;;;-146.25;100.00;52264.78;2088127;28;33142;-66
2023/08/20 03:35:54;;;;;;;30.58;22.75;;;;;;;-146.25;100.00;52281.00;2088469;28;20029;-66
2023/08/20 03:36:59;;;;;;;22.48;17.10;;;;;;;-146.25;100.00;52244.50;2088102;28;29537;-65
2023/08/20 03:38:06;;;;;;;24.02;16.13;;;;;;;-146.25;100.00;52297.22;2089221;28;20164;-66
2023/08/20 03:39:08;;;;;;;29.77;20.25;;;;;;;-146.25;100.00;52299.25;2088338;28;21022;-66
2023/08/20 03:40:11;;;;;;;36.95;26.33;;;;;;;-146.25;100.00;52234.38;2080468;28;20096;-65
2023/08/20 03:41:15;;;;;;;33.13;21.25;;;;;;;-146.25;100.00;52295.19;2087781;28;35794;-66
2023/08/20 03:42:17;;;;;;;20.92;15.60;;;;;;;-146.25;100.00;52327.66;2088765;28;33866;-66
2023/08/20 03:43:19;;;;;;;24.15;15.40;;;;;;;-146.25;100.00;52311.44;2087458;28;23161;-66
2023/08/20 03:44:21;;;;;;;22.52;14.45;;;;;;;-146.25;100.00;52260.72;2087863;28;29387;-66
2023/08/20 03:45:26;;;;;;;20.92;12.45;;;;;;;-146.25;100.00;52301.28;2096389;28;20045;-66
2023/08/20 03:46:30;;;;;;;22.33;12.75;;;;;;;-146.25;100.00;52250.59;2089784;28;20810;-66
2023/08/20 03:47:36;;;;;;;17.10;12.13;;;;;;;-146.25;100.00;52246.53;2088364;28;20049;-64
2023/08/20 03:48:38;;;;;;;14.68;10.57;;;;;;;-146.25;100.00;52291.16;2089634;28;20053;-65
2023/08/20 03:49:40;;;;;;;19.02;12.20;;;;;;;-146.25;100.00;52272.91;2096355;28;24821;-65
2023/08/20 03:50:42;;;;;;;17.73;13.25;;;;;;;-146.25;100.00;52262.75;2087906;28;25118;-66
2023/08/20 03:51:43;;;;;;;17.67;12.85;;;;;;;-146.25;100.00;52303.31;2088004;28;29753;-66
2023/08/20 03:52:45;;;;;;;14.23;11.07;;;;;;;-146.25;100.00;52274.94;2088048;28;20044;-66
2023/08/20 03:53:51;;;;;;;17.55;12.52;;;;;;;-146.25;100.00;52295.19;2088931;28;20899;-66
2023/08/20 03:54:52;;;;;;;21.15;13.75;;;;;;;-146.25;100.00;52287.09;2087935;28;26140;-65
2023/08/20 03:55:56;;;;;;;21.85;14.00;;;;;;;-146.25;100.00;52289.13;2087130;28;28348;-66
2023/08/20 03:56:58;;;;;;;23.08;14.48;;;;;;;-146.25;100.00;52319.53;2080464;28;31418;-66
2023/08/20 03:58:00;;;;;;;25.30;14.35;;;;;;;-146.25;100.00;52270.88;2080826;28;20033;-66
2023/08/20 03:59:02;;;;;;;24.85;14.77;;;;;;;-146.25;100.00;52274.94;2080435;28;28112;-66
2023/08/20 04:00:08;;;;;;;20.45;13.07;;;;;;;-146.25;100.00;52291.16;2080220;28;20061;-65
2023/08/20 04:01:15;;;;;;;21.55;14.70;;;;;;;-146.25;100.00;52293.19;2079137;28;20104;-65
2023/08/20 04:02:17;;;;;;;23.02;15.20;;;;;;;-146.25;100.00;52266.81;2080201;28;20364;-65
2023/08/20 04:03:19;;;;;;;31.15;17.85;;;;;;;-146.25;100.00;52262.75;2080388;28;20227;-65
2023/08/20 04:04:21;;;;;;;28.65;17.33;;;;;;;-146.25;100.00;52283.03;2079919;28;28560;-66
2023/08/20 04:05:23;;;;;;;31.38;17.98;;;;;;;-146.25;100.00;52254.66;2079702;28;27492;-64
2023/08/20 04:06:27;;;;;;;37.55;19.83;;;;;;;-146.25;100.00;52272.91;2079304;28;34276;-65
2023/08/20 04:07:29;;;;;;;38.63;19.98;;;;;;;-146.25;100.00;52303.31;2080128;28;29409;-64
2023/08/20 04:08:31;;;;;;;34.63;21.52;;;;;;;-146.25;100.00;52307.38;2080174;28;25023;-67
2023/08/20 04:09:34;;;;;;;37.55;23.92;;;;;;;-146.25;100.00;52335.75;2079644;28;32213;-64
2023/08/20 04:10:35;;;;;;;36.53;21.90;;;;;;;-146.25;100.00;52287.09;2079964;28;29718;-66
2023/08/20 04:11:40;;;;;;;34.83;22.00;;;;;;;-146.25;100.00;52283.03;2079699;28;20140;-65
2023/08/20 04:12:41;;;;;;;33.05;21.58;;;;;;;-146.25;100.00;52321.56;2080189;28;20149;-66
2023/08/20 04:13:46;;;;;;;38.33;23.48;;;;;;;-146.25;100.00;52287.09;2079928;28;20041;-66
2023/08/20 04:14:50;;;;;;;38.83;20.67;;;;;;;-146.25;100.00;52347.91;2080381;28;20942;-67
2023/08/20 04:15:51;;;;;;;39.60;21.83;;;;;;;-146.25;100.00;52285.06;2087804;28;20053;-67
2023/08/20 04:16:53;;;;;;;33.28;20.67;;;;;;;-146.25;100.00;52299.25;2079818;28;20045;-66
2023/08/20 04:17:55;;;;;;;39.63;22.23;;;;;;;-146.25;100.00;52234.38;2079962;28;20351;-64
2023/08/20 04:18:57;;;;;;;36.72;21.77;;;;;;;-146.25;100.00;52262.75;2080095;28;20069;-65
2023/08/20 04:20:01;;;;;;;34.75;21.05;;;;;;;-146.25;100.00;52276.97;2071962;28;20047;-65
2023/08/20 04:21:03;;;;;;;37.58;21.77;;;;;;;-146.25;100.00;52297.22;2071821;28;20269;-64
2023/08/20 04:22:04;;;;;;;31.38;19.33;;;;;;;-146.25;100.00;52319.53;2080048;28;20096;-65
2023/08/20 04:23:06;;;;;;;38.92;20.88;;;;;;;-146.25;100.00;52295.19;2088335;28;20084;-65
2023/08/20 04:24:10;;;;;;;32.38;19.95;;;;;;;-146.25;100.00;52287.09;2080818;28;20042;-65
2023/08/20 04:25:16;;;;;;;33.22;20.70;;;;;;;-146.25;100.00;52270.88;2079694;28;20097;-64
2023/08/20 04:26:18;;;;;;;37.72;21.42;;;;;;;-146.25;100.00;52289.13;2083265;28;20041;-65
2023/08/20 04:27:22;;;;;;;26.17;16.88;;;;;;;-146.25;100.00;52337.78;2087970;28;20048;-66
2023/08/20 04:28:26;;;;;;;29.63;18.20;;;;;;;-146.25;100.00;52270.88;2080039;28;20816;-65
2023/08/20 04:29:28;;;;;;;27.08;17.20;;;;;;;-146.25;100.00;52299.25;2071950;28;20051;-66
2023/08/20 04:30:34;;;;;;;39.55;19.10;;;;;;;-146.25;100.00;52272.91;2079638;28;20070;-65
2023/08/20 04:31:36;;;;;;;30.00;17.88;;;;;;;-146.25;100.00;52258.72;2079837;28;20876;-65
2023/08/20 04:32:42;;;;;;;26.10;16.80;;;;;;;-146.25;100.00;52274.94;2080948;28;20049;-66
2023/08/20 04:33:45;;;;;;;24.25;16.08;;;;;;;-146.25;100.00;52262.75;2087967;28;20072;-65
2023/08/20 04:34:53;;;;;;;26.95;14.70;;;;;;;-146.25;100.00;52289.13;2088111;28;21017;-66
2023/08/20 04:35:56;;;;;;;27.52;17.10;;;;;;;-146.25;100.00;52262.75;2087885;28;20515;-65
2023/08/20 04:37:00;;;;;;;29.67;15.90;;;;;;;-146.25;100.00;52274.94;2087907;28;20037;-64
2023/08/20 04:38:02;;;;;;;26.02;16.45;;;;;;;-146.25;100.00;52315.47;2079992;28;33167;-65
2023/08/20 04:39:04;;;;;;;21.42;14.10;;;;;;;-146.25;100.00;52327.66;2079443;28;20092;-65
2023/08/20 04:40:10;;;;;;;24.52;15.20;;;;;;;-146.25;100.00;52297.22;2080313;28;20038;-65
2023/08/20 04:41:12;;;;;;;17.70;13.48;;;;;;;-146.25;100.00;52343.88;2087810;28;20909;-66
2023/08/20 04:42:14;;;;;;;26.27;15.93;;;;;;;-146.25;100.00;52295.19;2080549;28;20049;-65
2023/08/20 04:43:16;;;;;;;20.17;13.63;;;;;;;-146.25;100.00;52303.31;2079690;28;20053;-65
2023/08/20 04:44:18;;;;;;;23.88;16.05;;;;;;;-146.25;100.00;52309.41;2079947;28;20331;-65